Fort Independence — WBH3169 — position and weather

sailwx.info

Track history (hours):
 
Tides and Currents Weather Stations Pressure Air Temp Water Temp Dewpoint Dewpoint Depression Visibility Wind Speed Wind Dir Waves Ship Positions

Fort Independence

Owner: Boston Harbor Cruises, BOSTON, MA. More information available from US FCC via Universal Licensing System and Coast Guard Vessel Documentation Center.

Last reported at 2018-Jun-18 02:26 UTC. Time now 2018-Jun-18 23:17 UTC.
Position N 42°23' W 071°03'.

Type: Passenger vessel. MMSI: 367177610.

Date/timePositionNaut miles runAvg speedWind from/ knotsBaromVisibWave heightAir tempDewpointWater temp
2018-Jun-18 02:26N 42°23' W 071°03'1 2.2
2018-Jun-18 02:00N 42°22' W 071°03'0 0.8
2018-Jun-18 01:30N 42°22' W 071°03'0 0.2
2018-Jun-18 01:01N 42°22' W 071°03'4 1.3
2018-Jun-17 22:13N 42°19' W 070°59'0 2.2
2018-Jun-17 22:00N 42°20' W 070°60'3 6.3
2018-Jun-17 21:30N 42°22' W 071°03'0 0.0
2018-Jun-17 21:00N 42°22' W 071°03'0 0.8
2018-Jun-17 20:30N 42°22' W 071°02'3 6.5
2018-Jun-17 20:00N 42°19' W 070°59'1 1.0
2018-Jun-17 19:30N 42°20' W 070°60'3 6.1
2018-Jun-17 19:00N 42°22' W 071°03'0 0.5
2018-Jun-17 18:30N 42°22' W 071°03'3 6.9
2018-Jun-17 18:01N 42°19' W 070°59'0 1.0
2018-Jun-17 17:30N 42°20' W 070°60'3 6.2
2018-Jun-17 17:00N 42°22' W 071°03'0 0.3
2018-Jun-17 16:31N 42°22' W 071°03'4 7.0
2018-Jun-17 16:00N 42°19' W 070°59'1 1.6
2018-Jun-17 15:30N 42°20' W 071°00'3 5.6
2018-Jun-17 15:00N 42°22' W 071°03'0 0.0
2018-Jun-17 14:30N 42°22' W 071°03'0 0.5
2018-Jun-17 14:00N 42°22' W 071°03'0 0.6
2018-Jun-17 13:30N 42°22' W 071°03'0 0.7
2018-Jun-17 13:00N 42°22' W 071°03'0 0.5
2018-Jun-17 12:30N 42°22' W 071°03'0 0.0
2018-Jun-16 22:03N 42°22' W 071°03'0 0.0
2018-Jun-16 22:00N 42°22' W 071°03'0 0.0
2018-Jun-16 21:30N 42°22' W 071°03'0 0.4
2018-Jun-16 21:01N 42°22' W 071°03'0 0.5
2018-Jun-16 20:30N 42°22' W 071°02'3 6.4
2018-Jun-16 20:00N 42°19' W 070°59'0 0.1
2018-Jun-16 19:30N 42°19' W 070°59'4 7.2
2018-Jun-16 19:00N 42°22' W 071°03'0 0.7
2018-Jun-16 18:30N 42°22' W 071°02'3 6.7
2018-Jun-16 18:00N 42°19' W 070°59'0 0.7
2018-Jun-16 17:30N 42°19' W 070°60'3 6.5
2018-Jun-16 17:00N 42°22' W 071°03'1 1.6
2018-Jun-16 16:30N 42°21' W 071°02'3 5.6
2018-Jun-16 16:00N 42°19' W 070°59'0 0.7
2018-Jun-16 15:30N 42°19' W 070°60'3 6.4
2018-Jun-16 15:00N 42°22' W 071°03'0 0.2
2018-Jun-16 14:30N 42°22' W 071°03'0 0.8
2018-Jun-16 14:00N 42°21' W 071°02'3 6.3
2018-Jun-16 13:31N 42°19' W 070°59'1 2.6
2018-Jun-16 13:00N 42°20' W 071°00'2 4.6
2018-Jun-16 12:30N 42°22' W 071°03'0 0.0
2018-Jun-16 12:00N 42°22' W 071°03'0 0.0
2018-Jun-16 11:30N 42°22' W 071°03'0 0.0
2018-Jun-16 11:00N 42°22' W 071°03'0 0.0
2018-Jun-16 10:30N 42°22' W 071°03'0 0.0
2018-Jun-16 01:12N 42°22' W 071°03'0 0.2
2018-Jun-16 01:00N 42°22' W 071°03'0 0.2
2018-Jun-16 00:30N 42°22' W 071°03'0 0.0
2018-Jun-16 00:00N 42°22' W 071°03'1 2.6
2018-Jun-15 23:30N 42°23' W 071°03'0 0.0
2018-Jun-15 02:26N 42°23' W 071°03'1 2.6
2018-Jun-15 02:01N 42°22' W 071°03'1 1.5
2018-Jun-15 01:31N 42°21' W 071°02'2 4.7
2018-Jun-15 01:00N 42°19' W 071°01'0 0.2
2018-Jun-15 00:30N 42°19' W 071°01'0 0.2
2018-Jun-15 00:00N 42°19' W 071°01'0 0.0
2018-Jun-14 23:30N 42°19' W 071°01'0 0.0
2018-Jun-14 23:00N 42°19' W 071°01'0 0.0
2018-Jun-14 22:31N 42°19' W 071°01'0 0.0
2018-Jun-14 22:00N 42°19' W 071°01'0 0.0
2018-Jun-14 21:30N 42°19' W 071°01'1 2.6
2018-Jun-14 21:00N 42°20' W 071°01'2 3.1
2018-Jun-14 20:31N 42°21' W 071°02'4 7.6
2018-Jun-14 20:00N 42°20' W 070°57'1 2.4
2018-Jun-14 19:30N 42°19' W 070°56'3 6.3
2018-Jun-14 19:00N 42°19' W 071°01'1 2.2
2018-Jun-14 18:30N 42°20' W 071°00'3 5.2
2018-Jun-14 18:01N 42°22' W 071°03'0 0.0
2018-Jun-14 17:30N 42°22' W 071°03'0 1.0
2018-Jun-14 17:01N 42°22' W 071°02'2 4.7
2018-Jun-14 16:30N 42°20' W 070°59'3 6.0
2018-Jun-14 16:00N 42°19' W 070°56'2 4.3
2018-Jun-14 15:30N 42°20' W 070°58'4 7.3
2018-Jun-14 15:00N 42°22' W 071°03'0 0.0
2018-Jun-14 14:30N 42°22' W 071°03'1 2.5
2018-Jun-14 14:00N 42°23' W 071°03'0 0.0
2018-Jun-14 13:31N 42°23' W 071°03'0 0.0
2018-Jun-14 13:00N 42°23' W 071°03'0 0.0
2018-Jun-13 16:45N 42°23' W 071°03'0 0.3
2018-Jun-13 16:30N 42°23' W 071°03'1 2.6
2018-Jun-13 16:00N 42°22' W 071°03'0 0.0
2018-Jun-13 15:30N 42°22' W 071°03'0 0.0
2018-Jun-13 15:00N 42°22' W 071°03'0 0.0
2018-Jun-13 14:30N 42°22' W 071°03'0 0.0
2018-Jun-13 14:00N 42°22' W 071°03'0 0.0
2018-Jun-13 13:30N 42°22' W 071°03'0 0.0
2018-Jun-13 13:00N 42°22' W 071°03'0 0.0
2018-Jun-13 12:30N 42°22' W 071°03'0 0.9
2018-Jun-13 12:00N 42°22' W 071°02'1 1.0
2018-Jun-13 11:31N 42°22' W 071°03'0 0.0
2018-Jun-12 19:42N 42°22' W 071°03'0 0.0
2018-Jun-12 19:30N 42°22' W 071°03'0 0.0
2018-Jun-12 19:00N 42°22' W 071°03'0 0.0
2018-Jun-12 18:30N 42°22' W 071°03'0 0.1
2018-Jun-12 18:00N 42°22' W 071°03'0 0.0
2018-Jun-12 17:30N 42°22' W 071°03'0 0.0
2018-Jun-12 17:01N 42°22' W 071°03'0 0.0
2018-Jun-12 16:30N 42°22' W 071°03'0 0.0
2018-Jun-12 16:00N 42°22' W 071°03'0 0.0
2018-Jun-12 15:30N 42°22' W 071°03'0 0.0
2018-Jun-12 15:00N 42°22' W 071°03'0 0.0
2018-Jun-12 14:30N 42°22' W 071°03'0 0.0
2018-Jun-12 14:00N 42°22' W 071°03'0 0.0
2018-Jun-12 13:31N 42°22' W 071°03'0 0.0
2018-Jun-12 13:00N 42°22' W 071°03'0 0.0
2018-Jun-12 12:30N 42°22' W 071°03'0 0.0
2018-Jun-12 12:00N 42°22' W 071°03'0 0.0
2018-Jun-12 11:30N 42°22' W 071°03'1 0.1
2018-Jun-11 22:04N 42°23' W 071°03'0 0.1
2018-Jun-11 22:00N 42°23' W 071°03'1 2.6
2018-Jun-11 21:30N 42°22' W 071°03'1 1.5
2018-Jun-11 21:00N 42°22' W 071°03'1 1.5
2018-Jun-11 20:30N 42°22' W 071°03'1 1.5
2018-Jun-11 20:00N 42°22' W 071°03'1 1.5
2018-Jun-11 19:30N 42°22' W 071°03'0 0.0
2018-Jun-11 19:00N 42°22' W 071°03'1 1.2
2018-Jun-11 18:30N 42°22' W 071°03'1 0.0
2018-Jun-11 02:08N 42°23' W 071°03'0 0.9
2018-Jun-11 02:01N 42°23' W 071°03'1 2.5
2018-Jun-11 01:30N 42°22' W 071°03'0 0.2
2018-Jun-11 01:00N 42°22' W 071°03'3 6.5
2018-Jun-11 00:30N 42°19' W 070°60'0 0.6
2018-Jun-11 00:00N 42°19' W 070°59'0 0.0
2018-Jun-10 23:30N 42°19' W 070°59'0 0.0
2018-Jun-10 23:00N 42°19' W 070°59'0 0.0
2018-Jun-10 22:30N 42°19' W 070°59'1 1.1
2018-Jun-10 22:00N 42°20' W 070°60'3 6.1
2018-Jun-10 21:30N 42°22' W 071°03'0 0.0
2018-Jun-10 21:00N 42°22' W 071°03'0 0.1
2018-Jun-10 20:30N 42°22' W 071°03'4 7.1
2018-Jun-10 20:00N 42°19' W 070°59'0 0.6
2018-Jun-10 19:30N 42°19' W 070°60'3 6.7
2018-Jun-10 19:01N 42°22' W 071°03'0 0.5
2018-Jun-10 18:31N 42°22' W 071°03'3 6.6
2018-Jun-10 18:00N 42°19' W 070°59'0 0.9
2018-Jun-10 17:30N 42°20' W 070°60'3 6.4
2018-Jun-10 17:01N 42°22' W 071°03'0 0.2
2018-Jun-10 16:31N 42°22' W 071°03'4 7.1
2018-Jun-10 16:01N 42°19' W 070°59'0 0.6
2018-Jun-10 15:30N 42°19' W 070°60'3 6.6
2018-Jun-10 15:00N 42°22' W 071°03'0 0.2
2018-Jun-10 14:00N 42°22' W 071°03'0 0.8
2018-Jun-10 13:30N 42°22' W 071°02'0 0.8
2018-Jun-10 13:01N 42°22' W 071°03'0 0.4
2018-Jun-10 12:30N 42°22' W 071°03'0 0.8
2018-Jun-10 12:01N 42°22' W 071°02'1 2.2
2018-Jun-10 11:31N 42°23' W 071°03'0 0.6
2018-Jun-10 11:00N 42°23' W 071°03'0 0.0
2018-Jun-09 21:52N 42°23' W 071°03'1 3.7
2018-Jun-09 21:31N 42°22' W 071°03'0 0.1
2018-Jun-09 21:00N 42°22' W 071°03'0 0.4
2018-Jun-09 20:30N 42°22' W 071°03'4 7.1
2018-Jun-09 20:00N 42°19' W 070°59'0 0.4
2018-Jun-09 19:30N 42°19' W 070°60'3 6.8
2018-Jun-09 19:01N 42°22' W 071°03'0 0.0
2018-Jun-09 18:31N 42°22' W 071°03'0 0.6
2018-Jun-09 18:00N 42°22' W 071°03'1 1.5
2018-Jun-09 17:31N 42°22' W 071°03'3 6.7
2018-Jun-09 17:00N 42°20' W 070°59'4 7.5
2018-Jun-09 16:30N 42°19' W 070°55'3 5.1
2018-Jun-09 16:01N 42°17' W 070°57'7 6.7
2018-Jun-09 15:00N 42°22' W 071°03'0 0.0
2018-Jun-09 14:30N 42°22' W 071°03'0 0.0
2018-Jun-09 14:00N 42°22' W 071°03'0 0.0
2018-Jun-09 13:30N 42°22' W 071°03'1 1.6
2018-Jun-09 13:00N 42°22' W 071°03'0 0.2
2018-Jun-09 12:30N 42°22' W 071°03'1 0.1
2018-Jun-09 01:36N 42°23' W 071°03'0 0.0
2018-Jun-09 01:30N 42°23' W 071°03'1 2.6
2018-Jun-09 01:00N 42°22' W 071°03'0 0.2
2018-Jun-09 00:30N 42°22' W 071°03'2 3.4
2018-Jun-09 00:00N 42°21' W 071°01'0 0.5
2018-Jun-08 23:30N 42°21' W 071°01'2 3.7
2018-Jun-08 23:00N 42°22' W 071°03'0 0.3
2018-Jun-08 22:30N 42°22' W 071°03'0 0.3
2018-Jun-08 22:00N 42°22' W 071°03'2 3.6
2018-Jun-08 21:30N 42°21' W 071°01'4 8.1
2018-Jun-08 21:00N 42°19' W 070°56'2 4.6
2018-Jun-08 20:30N 42°20' W 070°59'4 7.0
2018-Jun-08 20:00N 42°22' W 071°03'2 3.6
2018-Jun-08 19:30N 42°21' W 071°01'4 8.0
2018-Jun-08 19:00N 42°19' W 070°56'2 4.7
2018-Jun-08 18:30N 42°20' W 070°59'3 7.0
2018-Jun-08 18:00N 42°22' W 071°03'0 0.1
2018-Jun-08 17:30N 42°22' W 071°03'0 0.0
2018-Jun-08 17:01N 42°22' W 071°03'1 2.6
2018-Jun-08 16:30N 42°23' W 071°03'0 0.0
2018-Jun-08 16:00N 42°23' W 071°03'0 0.0
2018-Jun-08 15:31N 42°23' W 071°03'0 0.0
2018-Jun-08 15:00N 42°23' W 071°03'0 0.0
2018-Jun-08 14:30N 42°23' W 071°03'0 0.0
2018-Jun-08 14:00N 42°23' W 071°03'0 0.0
2018-Jun-08 13:30N 42°23' W 071°03'0 0.0
2018-Jun-08 13:00N 42°23' W 071°03'0 0.0
2018-Jun-08 12:30N 42°23' W 071°03'1 2.6
2018-Jun-08 12:01N 42°22' W 071°03'0 0.0
2018-Jun-08 11:30N 42°22' W 071°03'0 0.0
2018-Jun-08 11:00N 42°22' W 071°03'0 0.0
2018-Jun-08 10:30N 42°22' W 071°03'0 0.0
2018-Jun-08 10:00N 42°22' W 071°03'0 0.0
2018-Jun-08 09:30N 42°22' W 071°03'0 0.0
2018-Jun-08 09:00N 42°22' W 071°03'0 0.0
2018-Jun-08 08:30N 42°22' W 071°03'0 0.0
2018-Jun-08 08:00N 42°22' W 071°03'0 0.0
2018-Jun-08 07:30N 42°22' W 071°03'0 0.0
2018-Jun-08 07:01N 42°22' W 071°03'0 0.0
2018-Jun-08 06:30N 42°22' W 071°03'0 0.0
2018-Jun-08 06:00N 42°22' W 071°03'0 0.0
2018-Jun-08 05:30N 42°22' W 071°03'0 0.0
2018-Jun-08 05:00N 42°22' W 071°03'0 0.0
2018-Jun-08 04:30N 42°22' W 071°03'0 0.0
2018-Jun-08 04:00N 42°22' W 071°03'0 0.0
2018-Jun-08 03:30N 42°22' W 071°03'0 0.0
2018-Jun-08 03:00N 42°22' W 071°03'0 0.0
2018-Jun-08 02:30N 42°22' W 071°03'  
Track history (hours):
 
Tides and Currents Weather Stations Pressure Air Temp Water Temp Dewpoint Dewpoint Depression Visibility Wind Speed Wind Dir Waves Ship Positions

Fort Independence

Owner: Boston Harbor Cruises, BOSTON, MA. More information available from US FCC via Universal Licensing System and Coast Guard Vessel Documentation Center.

Last reported at 2018-Jun-18 02:26 UTC. Time now 2018-Jun-18 23:17 UTC.
Position N 42°23' W 071°03'.

Type: Passenger vessel. MMSI: 367177610.

Date/timePositionNaut miles runAvg speedWind from/ knotsBaromVisibWave heightAir tempDewpointWater temp
2018-Jun-18 02:26N 42°23' W 071°03'1 2.2
2018-Jun-18 02:00N 42°22' W 071°03'0 0.8
2018-Jun-18 01:30N 42°22' W 071°03'0 0.2
2018-Jun-18 01:01N 42°22' W 071°03'4 1.3
2018-Jun-17 22:13N 42°19' W 070°59'0 2.2
2018-Jun-17 22:00N 42°20' W 070°60'3 6.3
2018-Jun-17 21:30N 42°22' W 071°03'0 0.0
2018-Jun-17 21:00N 42°22' W 071°03'0 0.8
2018-Jun-17 20:30N 42°22' W 071°02'3 6.5
2018-Jun-17 20:00N 42°19' W 070°59'1 1.0
2018-Jun-17 19:30N 42°20' W 070°60'3 6.1
2018-Jun-17 19:00N 42°22' W 071°03'0 0.5
2018-Jun-17 18:30N 42°22' W 071°03'3 6.9
2018-Jun-17 18:01N 42°19' W 070°59'0 1.0
2018-Jun-17 17:30N 42°20' W 070°60'3 6.2
2018-Jun-17 17:00N 42°22' W 071°03'0 0.3
2018-Jun-17 16:31N 42°22' W 071°03'4 7.0
2018-Jun-17 16:00N 42°19' W 070°59'1 1.6
2018-Jun-17 15:30N 42°20' W 071°00'3 5.6
2018-Jun-17 15:00N 42°22' W 071°03'0 0.0
2018-Jun-17 14:30N 42°22' W 071°03'0 0.5
2018-Jun-17 14:00N 42°22' W 071°03'0 0.6
2018-Jun-17 13:30N 42°22' W 071°03'0 0.7
2018-Jun-17 13:00N 42°22' W 071°03'0 0.5
2018-Jun-17 12:30N 42°22' W 071°03'0 0.0
2018-Jun-16 22:03N 42°22' W 071°03'0 0.0
2018-Jun-16 22:00N 42°22' W 071°03'0 0.0
2018-Jun-16 21:30N 42°22' W 071°03'0 0.4
2018-Jun-16 21:01N 42°22' W 071°03'0 0.5
2018-Jun-16 20:30N 42°22' W 071°02'3 6.4
2018-Jun-16 20:00N 42°19' W 070°59'0 0.1
2018-Jun-16 19:30N 42°19' W 070°59'4 7.2
2018-Jun-16 19:00N 42°22' W 071°03'0 0.7
2018-Jun-16 18:30N 42°22' W 071°02'3 6.7
2018-Jun-16 18:00N 42°19' W 070°59'0 0.7
2018-Jun-16 17:30N 42°19' W 070°60'3 6.5
2018-Jun-16 17:00N 42°22' W 071°03'1 1.6
2018-Jun-16 16:30N 42°21' W 071°02'3 5.6
2018-Jun-16 16:00N 42°19' W 070°59'0 0.7
2018-Jun-16 15:30N 42°19' W 070°60'3 6.4
2018-Jun-16 15:00N 42°22' W 071°03'0 0.2
2018-Jun-16 14:30N 42°22' W 071°03'0 0.8
2018-Jun-16 14:00N 42°21' W 071°02'3 6.3
2018-Jun-16 13:31N 42°19' W 070°59'1 2.6
2018-Jun-16 13:00N 42°20' W 071°00'2 4.6
2018-Jun-16 12:30N 42°22' W 071°03'0 0.0
2018-Jun-16 12:00N 42°22' W 071°03'0 0.0
2018-Jun-16 11:30N 42°22' W 071°03'0 0.0
2018-Jun-16 11:00N 42°22' W 071°03'0 0.0
2018-Jun-16 10:30N 42°22' W 071°03'0 0.0
2018-Jun-16 01:12N 42°22' W 071°03'0 0.2
2018-Jun-16 01:00N 42°22' W 071°03'0 0.2
2018-Jun-16 00:30N 42°22' W 071°03'0 0.0
2018-Jun-16 00:00N 42°22' W 071°03'1 2.6
2018-Jun-15 23:30N 42°23' W 071°03'0 0.0
2018-Jun-15 02:26N 42°23' W 071°03'1 2.6
2018-Jun-15 02:01N 42°22' W 071°03'1 1.5
2018-Jun-15 01:31N 42°21' W 071°02'2 4.7
2018-Jun-15 01:00N 42°19' W 071°01'0 0.2
2018-Jun-15 00:30N 42°19' W 071°01'0 0.2
2018-Jun-15 00:00N 42°19' W 071°01'0 0.0
2018-Jun-14 23:30N 42°19' W 071°01'0 0.0
2018-Jun-14 23:00N 42°19' W 071°01'0 0.0
2018-Jun-14 22:31N 42°19' W 071°01'0 0.0
2018-Jun-14 22:00N 42°19' W 071°01'0 0.0
2018-Jun-14 21:30N 42°19' W 071°01'1 2.6
2018-Jun-14 21:00N 42°20' W 071°01'2 3.1
2018-Jun-14 20:31N 42°21' W 071°02'4 7.6
2018-Jun-14 20:00N 42°20' W 070°57'1 2.4
2018-Jun-14 19:30N 42°19' W 070°56'3 6.3
2018-Jun-14 19:00N 42°19' W 071°01'1 2.2
2018-Jun-14 18:30N 42°20' W 071°00'3 5.2
2018-Jun-14 18:01N 42°22' W 071°03'0 0.0
2018-Jun-14 17:30N 42°22' W 071°03'0 1.0
2018-Jun-14 17:01N 42°22' W 071°02'2 4.7
2018-Jun-14 16:30N 42°20' W 070°59'3 6.0
2018-Jun-14 16:00N 42°19' W 070°56'2 4.3
2018-Jun-14 15:30N 42°20' W 070°58'4 7.3
2018-Jun-14 15:00N 42°22' W 071°03'0 0.0
2018-Jun-14 14:30N 42°22' W 071°03'1 2.5
2018-Jun-14 14:00N 42°23' W 071°03'0 0.0
2018-Jun-14 13:31N 42°23' W 071°03'0 0.0
2018-Jun-14 13:00N 42°23' W 071°03'0 0.0
2018-Jun-13 16:45N 42°23' W 071°03'0 0.3
2018-Jun-13 16:30N 42°23' W 071°03'1 2.6
2018-Jun-13 16:00N 42°22' W 071°03'0 0.0
2018-Jun-13 15:30N 42°22' W 071°03'0 0.0
2018-Jun-13 15:00N 42°22' W 071°03'0 0.0
2018-Jun-13 14:30N 42°22' W 071°03'0 0.0
2018-Jun-13 14:00N 42°22' W 071°03'0 0.0
2018-Jun-13 13:30N 42°22' W 071°03'0 0.0
2018-Jun-13 13:00N 42°22' W 071°03'0 0.0
2018-Jun-13 12:30N 42°22' W 071°03'0 0.9
2018-Jun-13 12:00N 42°22' W 071°02'1 1.0
2018-Jun-13 11:31N 42°22' W 071°03'0 0.0
2018-Jun-12 19:42N 42°22' W 071°03'0 0.0
2018-Jun-12 19:30N 42°22' W 071°03'0 0.0
2018-Jun-12 19:00N 42°22' W 071°03'0 0.0
2018-Jun-12 18:30N 42°22' W 071°03'0 0.1
2018-Jun-12 18:00N 42°22' W 071°03'0 0.0
2018-Jun-12 17:30N 42°22' W 071°03'0 0.0
2018-Jun-12 17:01N 42°22' W 071°03'0 0.0
2018-Jun-12 16:30N 42°22' W 071°03'0 0.0
2018-Jun-12 16:00N 42°22' W 071°03'0 0.0
2018-Jun-12 15:30N 42°22' W 071°03'0 0.0
2018-Jun-12 15:00N 42°22' W 071°03'0 0.0
2018-Jun-12 14:30N 42°22' W 071°03'0 0.0
2018-Jun-12 14:00N 42°22' W 071°03'0 0.0
2018-Jun-12 13:31N 42°22' W 071°03'0 0.0
2018-Jun-12 13:00N 42°22' W 071°03'0 0.0
2018-Jun-12 12:30N 42°22' W 071°03'0 0.0
2018-Jun-12 12:00N 42°22' W 071°03'0 0.0
2018-Jun-12 11:30N 42°22' W 071°03'1 0.1
2018-Jun-11 22:04N 42°23' W 071°03'0 0.1
2018-Jun-11 22:00N 42°23' W 071°03'1 2.6
2018-Jun-11 21:30N 42°22' W 071°03'1 1.5
2018-Jun-11 21:00N 42°22' W 071°03'1 1.5
2018-Jun-11 20:30N 42°22' W 071°03'1 1.5
2018-Jun-11 20:00N 42°22' W 071°03'1 1.5
2018-Jun-11 19:30N 42°22' W 071°03'0 0.0
2018-Jun-11 19:00N 42°22' W 071°03'1 1.2
2018-Jun-11 18:30N 42°22' W 071°03'1 0.0
2018-Jun-11 02:08N 42°23' W 071°03'0 0.9
2018-Jun-11 02:01N 42°23' W 071°03'1 2.5
2018-Jun-11 01:30N 42°22' W 071°03'0 0.2
2018-Jun-11 01:00N 42°22' W 071°03'3 6.5
2018-Jun-11 00:30N 42°19' W 070°60'0 0.6
2018-Jun-11 00:00N 42°19' W 070°59'0 0.0
2018-Jun-10 23:30N 42°19' W 070°59'0 0.0
2018-Jun-10 23:00N 42°19' W 070°59'0 0.0
2018-Jun-10 22:30N 42°19' W 070°59'1 1.1
2018-Jun-10 22:00N 42°20' W 070°60'3 6.1
2018-Jun-10 21:30N 42°22' W 071°03'0 0.0
2018-Jun-10 21:00N 42°22' W 071°03'0 0.1
2018-Jun-10 20:30N 42°22' W 071°03'4 7.1
2018-Jun-10 20:00N 42°19' W 070°59'0 0.6
2018-Jun-10 19:30N 42°19' W 070°60'3 6.7
2018-Jun-10 19:01N 42°22' W 071°03'0 0.5
2018-Jun-10 18:31N 42°22' W 071°03'3 6.6
2018-Jun-10 18:00N 42°19' W 070°59'0 0.9
2018-Jun-10 17:30N 42°20' W 070°60'3 6.4
2018-Jun-10 17:01N 42°22' W 071°03'0 0.2
2018-Jun-10 16:31N 42°22' W 071°03'4 7.1
2018-Jun-10 16:01N 42°19' W 070°59'0 0.6
2018-Jun-10 15:30N 42°19' W 070°60'3 6.6
2018-Jun-10 15:00N 42°22' W 071°03'0 0.2
2018-Jun-10 14:00N 42°22' W 071°03'0 0.8
2018-Jun-10 13:30N 42°22' W 071°02'0 0.8
2018-Jun-10 13:01N 42°22' W 071°03'0 0.4
2018-Jun-10 12:30N 42°22' W 071°03'0 0.8
2018-Jun-10 12:01N 42°22' W 071°02'1 2.2
2018-Jun-10 11:31N 42°23' W 071°03'0 0.6
2018-Jun-10 11:00N 42°23' W 071°03'0 0.0
2018-Jun-09 21:52N 42°23' W 071°03'1 3.7
2018-Jun-09 21:31N 42°22' W 071°03'0 0.1
2018-Jun-09 21:00N 42°22' W 071°03'0 0.4
2018-Jun-09 20:30N 42°22' W 071°03'4 7.1
2018-Jun-09 20:00N 42°19' W 070°59'0 0.4
2018-Jun-09 19:30N 42°19' W 070°60'3 6.8
2018-Jun-09 19:01N 42°22' W 071°03'0 0.0
2018-Jun-09 18:31N 42°22' W 071°03'0 0.6
2018-Jun-09 18:00N 42°22' W 071°03'1 1.5
2018-Jun-09 17:31N 42°22' W 071°03'3 6.7
2018-Jun-09 17:00N 42°20' W 070°59'4 7.5
2018-Jun-09 16:30N 42°19' W 070°55'3 5.1
2018-Jun-09 16:01N 42°17' W 070°57'7 6.7
2018-Jun-09 15:00N 42°22' W 071°03'0 0.0
2018-Jun-09 14:30N 42°22' W 071°03'0 0.0
2018-Jun-09 14:00N 42°22' W 071°03'0 0.0
2018-Jun-09 13:30N 42°22' W 071°03'1 1.6
2018-Jun-09 13:00N 42°22' W 071°03'0 0.2
2018-Jun-09 12:30N 42°22' W 071°03'1 0.1
2018-Jun-09 01:36N 42°23' W 071°03'0 0.0
2018-Jun-09 01:30N 42°23' W 071°03'1 2.6
2018-Jun-09 01:00N 42°22' W 071°03'0 0.2
2018-Jun-09 00:30N 42°22' W 071°03'2 3.4
2018-Jun-09 00:00N 42°21' W 071°01'0 0.5
2018-Jun-08 23:30N 42°21' W 071°01'2 3.7
2018-Jun-08 23:00N 42°22' W 071°03'0 0.3
2018-Jun-08 22:30N 42°22' W 071°03'0 0.3
2018-Jun-08 22:00N 42°22' W 071°03'2 3.6
2018-Jun-08 21:30N 42°21' W 071°01'4 8.1
2018-Jun-08 21:00N 42°19' W 070°56'2 4.6
2018-Jun-08 20:30N 42°20' W 070°59'4 7.0
2018-Jun-08 20:00N 42°22' W 071°03'2 3.6
2018-Jun-08 19:30N 42°21' W 071°01'4 8.0
2018-Jun-08 19:00N 42°19' W 070°56'2 4.7
2018-Jun-08 18:30N 42°20' W 070°59'3 7.0
2018-Jun-08 18:00N 42°22' W 071°03'0 0.1
2018-Jun-08 17:30N 42°22' W 071°03'0 0.0
2018-Jun-08 17:01N 42°22' W 071°03'1 2.6
2018-Jun-08 16:30N 42°23' W 071°03'0 0.0
2018-Jun-08 16:00N 42°23' W 071°03'0 0.0
2018-Jun-08 15:31N 42°23' W 071°03'0 0.0
2018-Jun-08 15:00N 42°23' W 071°03'0 0.0
2018-Jun-08 14:30N 42°23' W 071°03'0 0.0
2018-Jun-08 14:00N 42°23' W 071°03'0 0.0
2018-Jun-08 13:30N 42°23' W 071°03'0 0.0
2018-Jun-08 13:00N 42°23' W 071°03'0 0.0
2018-Jun-08 12:30N 42°23' W 071°03'1 2.6
2018-Jun-08 12:01N 42°22' W 071°03'0 0.0
2018-Jun-08 11:30N 42°22' W 071°03'0 0.0
2018-Jun-08 11:00N 42°22' W 071°03'0 0.0
2018-Jun-08 10:30N 42°22' W 071°03'0 0.0
2018-Jun-08 10:00N 42°22' W 071°03'0 0.0
2018-Jun-08 09:30N 42°22' W 071°03'0 0.0
2018-Jun-08 09:00N 42°22' W 071°03'0 0.0
2018-Jun-08 08:30N 42°22' W 071°03'0 0.0
2018-Jun-08 08:00N 42°22' W 071°03'0 0.0
2018-Jun-08 07:30N 42°22' W 071°03'0 0.0
2018-Jun-08 07:01N 42°22' W 071°03'0 0.0
2018-Jun-08 06:30N 42°22' W 071°03'0 0.0
2018-Jun-08 06:00N 42°22' W 071°03'0 0.0
2018-Jun-08 05:30N 42°22' W 071°03'0 0.0
2018-Jun-08 05:00N 42°22' W 071°03'0 0.0
2018-Jun-08 04:30N 42°22' W 071°03'0 0.0
2018-Jun-08 04:00N 42°22' W 071°03'0 0.0
2018-Jun-08 03:30N 42°22' W 071°03'0 0.0
2018-Jun-08 03:00N 42°22' W 071°03'0 0.0
2018-Jun-08 02:30N 42°22' W 071°03'  

Dump ship's entire track history